createdAt,value
2018-12-17T00:00:04.772Z,975.34
2018-12-17T00:01:05.273Z,975.54
2018-12-17T00:02:04.487Z,975.48
2018-12-17T00:03:05.262Z,975.37
2018-12-17T00:04:04.847Z,975.51
2018-12-17T00:05:05.299Z,975.53
2018-12-17T00:06:05.488Z,975.42
2018-12-17T00:07:05.021Z,975.45
2018-12-17T00:08:05.049Z,975.48
2018-12-17T00:09:04.913Z,975.56
2018-12-17T00:10:05.196Z,975.59
2018-12-17T00:11:05.389Z,975.48
2018-12-17T00:12:04.961Z,975.45
2018-12-17T00:13:05.298Z,975.53
2018-12-17T00:14:05.556Z,975.56
2018-12-17T00:15:05.606Z,975.47
2018-12-17T00:16:04.597Z,975.70
2018-12-17T00:17:05.626Z,975.64
2018-12-17T00:18:05.397Z,975.53
2018-12-17T00:19:05.487Z,975.64
2018-12-17T00:20:04.509Z,975.72
2018-12-17T00:21:04.558Z,975.72
2018-12-17T00:22:04.896Z,975.58
2018-12-17T00:23:05.218Z,975.61
2018-12-17T00:24:05.103Z,975.47
2018-12-17T00:25:05.387Z,975.58
2018-12-17T00:26:04.867Z,975.50
2018-12-17T00:27:05.249Z,975.53
2018-12-17T00:28:08.638Z,975.50
2018-12-17T00:29:05.271Z,975.47
2018-12-17T00:30:04.831Z,975.44
2018-12-17T00:31:04.938Z,975.47
2018-12-17T00:32:05.037Z,975.47
2018-12-17T00:33:05.347Z,975.47
2018-12-17T00:34:04.816Z,975.47
2018-12-17T00:35:04.908Z,975.69
2018-12-17T00:36:05.271Z,975.61
2018-12-17T00:37:04.862Z,975.66
2018-12-17T00:38:04.574Z,975.61
2018-12-17T00:39:04.868Z,975.58
2018-12-17T00:40:04.762Z,975.77
2018-12-17T00:41:05.014Z,975.58
2018-12-17T00:42:04.973Z,975.72
2018-12-17T00:43:04.614Z,975.69
2018-12-17T00:44:04.705Z,975.69
2018-12-17T00:45:05.054Z,975.58
2018-12-17T00:46:05.137Z,975.60
2018-12-17T00:47:05.179Z,975.69
2018-12-17T00:48:10.501Z,975.88
2018-12-17T00:49:04.882Z,975.63
2018-12-17T00:50:05.160Z,975.91
2018-12-17T00:51:04.752Z,975.69
2018-12-17T00:52:05.068Z,975.74
2018-12-17T00:53:05.022Z,975.85
2018-12-17T00:54:04.617Z,975.83
2018-12-17T00:55:04.609Z,975.88
2018-12-17T00:56:05.189Z,975.88
2018-12-17T00:57:05.505Z,976.05
2018-12-17T00:58:04.632Z,975.77
2018-12-17T00:59:04.940Z,975.85
2018-12-17T01:00:05.573Z,975.85
2018-12-17T01:01:04.538Z,975.82
2018-12-17T01:02:04.933Z,975.85
2018-12-17T01:03:04.965Z,975.80
2018-12-17T01:04:05.222Z,975.88
2018-12-17T01:05:04.667Z,975.99
2018-12-17T01:06:04.755Z,976.05
2018-12-17T01:07:05.068Z,975.99
2018-12-17T01:08:05.149Z,975.88
2018-12-17T01:09:05.364Z,975.85
2018-12-17T01:10:04.824Z,975.88
2018-12-17T01:11:05.056Z,976.02
2018-12-17T01:12:04.992Z,976.02
2018-12-17T01:13:05.186Z,975.99
2018-12-17T01:14:05.044Z,975.96
2018-12-17T01:15:05.353Z,975.93
2018-12-17T01:16:05.527Z,975.93
2018-12-17T01:17:04.667Z,975.96
2018-12-17T01:18:05.205Z,976.07
2018-12-17T01:19:05.189Z,975.91
2018-12-17T01:20:05.342Z,975.96
2018-12-17T01:21:05.451Z,975.96
2018-12-17T01:22:05.420Z,975.93
2018-12-17T01:23:05.450Z,976.02
2018-12-17T01:24:05.173Z,975.91
2018-12-17T01:25:05.413Z,975.96
2018-12-17T01:26:04.792Z,975.88
2018-12-17T01:27:04.889Z,976.10
2018-12-17T01:28:04.851Z,975.90
2018-12-17T01:29:05.097Z,976.02
2018-12-17T01:30:05.101Z,976.07
2018-12-17T01:31:04.657Z,976.02
2018-12-17T01:32:05.145Z,975.93
2018-12-17T01:33:04.656Z,976.05
2018-12-17T01:34:04.794Z,975.99
2018-12-17T01:35:04.953Z,976.02
2018-12-17T01:36:05.265Z,976.05
2018-12-17T01:37:05.412Z,976.13
2018-12-17T01:38:05.571Z,975.99
2018-12-17T01:39:04.620Z,976.05
2018-12-17T01:40:05.156Z,976.02
2018-12-17T01:41:05.204Z,975.94
2018-12-17T01:42:04.611Z,976.02
2018-12-17T01:43:04.963Z,976.08
2018-12-17T01:44:04.788Z,976.10
2018-12-17T01:45:04.720Z,976.16
2018-12-17T01:46:05.115Z,976.33
2018-12-17T01:47:04.724Z,976.13
2018-12-17T01:48:04.705Z,976.33
2018-12-17T01:49:05.210Z,976.30
2018-12-17T01:50:04.576Z,976.22
2018-12-17T01:51:04.875Z,976.19
2018-12-17T01:52:05.513Z,976.30
2018-12-17T01:53:04.842Z,976.25
2018-12-17T01:54:04.941Z,976.08
2018-12-17T01:55:04.555Z,976.25
2018-12-17T01:56:04.684Z,976.11
2018-12-17T01:57:04.795Z,976.17
2018-12-17T01:58:04.867Z,976.17
2018-12-17T01:59:04.998Z,976.20
2018-12-17T02:00:05.349Z,976.23
2018-12-17T02:01:05.528Z,976.23
2018-12-17T02:02:04.976Z,976.29
2018-12-17T02:03:04.927Z,976.32
2018-12-17T02:04:05.119Z,976.29
2018-12-17T02:05:04.726Z,976.40
2018-12-17T02:06:04.848Z,976.29
2018-12-17T02:07:05.052Z,976.23
2018-12-17T02:08:05.226Z,976.32
2018-12-17T02:09:05.404Z,976.35
2018-12-17T02:10:05.575Z,976.38
2018-12-17T02:11:05.410Z,976.43
2018-12-17T02:12:04.550Z,976.29
2018-12-17T02:13:05.248Z,976.38
2018-12-17T02:14:05.176Z,976.52
2018-12-17T02:15:04.777Z,976.46
2018-12-17T02:16:04.793Z,976.44
2018-12-17T02:17:05.165Z,976.46
2018-12-17T02:18:05.190Z,976.58
2018-12-17T02:19:05.373Z,976.47
2018-12-17T02:20:05.119Z,976.49
2018-12-17T02:21:05.089Z,976.52
2018-12-17T02:22:05.325Z,976.58
2018-12-17T02:23:05.378Z,976.50
2018-12-17T02:24:04.587Z,976.39
2018-12-17T02:25:04.692Z,976.53
2018-12-17T02:26:05.220Z,976.53
2018-12-17T02:27:05.154Z,976.44
2018-12-17T02:28:05.395Z,976.44
2018-12-17T02:29:05.504Z,976.44
2018-12-17T02:30:04.815Z,976.56
2018-12-17T02:31:05.050Z,976.47
2018-12-17T02:32:05.265Z,976.47
2018-12-17T02:33:05.367Z,976.56
2018-12-17T02:34:05.009Z,976.36
2018-12-17T02:35:05.098Z,976.53
2018-12-17T02:36:05.100Z,976.39
2018-12-17T02:37:05.468Z,976.50
2018-12-17T02:38:04.799Z,976.53
2018-12-17T02:39:04.792Z,976.53
2018-12-17T02:40:04.962Z,976.53
2018-12-17T02:41:04.930Z,976.42
2018-12-17T02:42:05.071Z,976.45
2018-12-17T02:43:05.207Z,976.50
2018-12-17T02:44:05.308Z,976.53
2018-12-17T02:45:05.424Z,976.47
2018-12-17T02:46:05.543Z,976.59
2018-12-17T02:47:04.904Z,976.42
2018-12-17T02:48:04.971Z,976.50
2018-12-17T02:49:05.429Z,976.53
2018-12-17T02:50:04.781Z,976.36
2018-12-17T02:51:04.741Z,976.48
2018-12-17T02:52:04.808Z,976.56
2018-12-17T02:53:04.872Z,976.61
2018-12-17T02:54:04.929Z,976.48
2018-12-17T02:55:05.525Z,976.59
2018-12-17T02:56:04.869Z,976.59
2018-12-17T02:57:04.819Z,976.70
2018-12-17T02:58:10.120Z,976.65
2018-12-17T02:59:04.625Z,976.70
2018-12-17T03:00:04.657Z,976.59
2018-12-17T03:01:05.262Z,976.86
2018-12-17T03:02:04.907Z,976.77
2018-12-17T03:03:04.862Z,976.80
2018-12-17T03:04:05.028Z,976.91
2018-12-17T03:05:05.293Z,976.83
2018-12-17T03:06:05.429Z,976.77
2018-12-17T03:07:04.732Z,976.80
2018-12-17T03:08:05.346Z,976.65
2018-12-17T03:09:04.829Z,976.65
2018-12-17T03:10:05.540Z,976.80
2018-12-17T03:11:04.658Z,976.65
2018-12-17T03:12:04.654Z,976.77
2018-12-17T03:13:04.679Z,976.65
2018-12-17T03:14:05.184Z,976.80
2018-12-17T03:15:05.289Z,976.59
2018-12-17T03:16:05.343Z,976.73
2018-12-17T03:17:04.574Z,976.62
2018-12-17T03:18:04.668Z,976.67
2018-12-17T03:19:04.641Z,976.67
2018-12-17T03:20:05.274Z,976.56
2018-12-17T03:21:05.474Z,976.62
2018-12-17T03:22:04.800Z,976.70
2018-12-17T03:23:05.352Z,976.64
2018-12-17T03:24:05.517Z,976.53
2018-12-17T03:25:04.615Z,976.67
2018-12-17T03:26:04.622Z,976.77
2018-12-17T03:27:05.012Z,976.56
2018-12-17T03:28:05.073Z,976.73
2018-12-17T03:29:05.254Z,976.59
2018-12-17T03:30:04.786Z,976.62
2018-12-17T03:31:05.462Z,976.62
2018-12-17T03:32:09.779Z,976.70
2018-12-17T03:33:05.145Z,976.70
2018-12-17T03:34:05.395Z,976.51
2018-12-17T03:35:04.787Z,976.70
2018-12-17T03:36:04.855Z,976.51
2018-12-17T03:37:04.905Z,976.65
2018-12-17T03:38:04.841Z,976.59
2018-12-17T03:39:05.225Z,976.59
2018-12-17T03:40:04.710Z,976.53
2018-12-17T03:41:05.157Z,976.42
2018-12-17T03:42:05.112Z,976.51
2018-12-17T03:43:05.287Z,976.70
2018-12-17T03:44:04.678Z,976.56
2018-12-17T03:45:04.788Z,976.51
2018-12-17T03:46:05.490Z,976.56
2018-12-17T03:47:04.856Z,976.67
2018-12-17T03:48:05.181Z,976.62
2018-12-17T03:49:05.323Z,976.70
2018-12-17T03:50:05.229Z,976.59
2018-12-17T03:51:04.581Z,976.67
2018-12-17T03:52:04.692Z,976.86
2018-12-17T03:53:04.857Z,976.64
2018-12-17T03:54:04.965Z,976.77
2018-12-17T03:55:05.291Z,976.83
2018-12-17T03:56:05.241Z,976.74
2018-12-17T03:57:05.344Z,976.80
2018-12-17T03:58:04.706Z,976.85
2018-12-17T03:59:04.750Z,976.80
2018-12-17T04:00:05.302Z,976.74
2018-12-17T04:01:05.646Z,976.83
2018-12-17T04:02:04.548Z,976.77
2018-12-17T04:03:04.848Z,976.80
2018-12-17T04:04:05.203Z,976.85
2018-12-17T04:05:05.331Z,976.85
2018-12-17T04:06:10.379Z,977.05
2018-12-17T04:07:04.800Z,976.88
2018-12-17T04:08:04.825Z,976.83
2018-12-17T04:09:05.340Z,976.99
2018-12-17T04:10:04.549Z,976.99
2018-12-17T04:11:04.619Z,976.91
2018-12-17T04:12:04.956Z,976.91
2018-12-17T04:13:05.261Z,977.02
2018-12-17T04:14:05.548Z,976.96
2018-12-17T04:15:04.865Z,976.99
2018-12-17T04:16:05.402Z,977.05
2018-12-17T04:17:04.607Z,977.02
2018-12-17T04:18:04.878Z,976.96
2018-12-17T04:19:04.886Z,977.07
2018-12-17T04:20:04.947Z,976.99
2018-12-17T04:21:05.185Z,977.07
2018-12-17T04:22:05.092Z,976.96
2018-12-17T04:23:04.518Z,976.82
2018-12-17T04:24:04.827Z,976.99
2018-12-17T04:25:05.198Z,976.88
2018-12-17T04:26:04.848Z,976.99
2018-12-17T04:27:05.523Z,976.88
2018-12-17T04:28:04.488Z,976.90
2018-12-17T04:29:07.428Z,977.04
2018-12-17T04:30:05.068Z,977.24
2018-12-17T04:31:05.059Z,977.15
2018-12-17T04:32:04.813Z,977.24
2018-12-17T04:33:04.924Z,977.18
2018-12-17T04:34:05.228Z,977.15
2018-12-17T04:35:05.164Z,977.10
2018-12-17T04:36:04.834Z,977.10
2018-12-17T04:37:05.390Z,977.15
2018-12-17T04:38:05.566Z,977.12
2018-12-17T04:39:04.705Z,977.12
2018-12-17T04:40:04.785Z,977.40
2018-12-17T04:41:05.135Z,977.24
2018-12-17T04:42:05.445Z,977.26
2018-12-17T04:43:05.430Z,977.21
2018-12-17T04:44:05.391Z,977.23
2018-12-17T04:45:04.676Z,977.21
2018-12-17T04:46:04.635Z,977.12
2018-12-17T04:47:04.793Z,977.29
2018-12-17T04:48:04.681Z,977.23
2018-12-17T04:49:04.595Z,977.21
2018-12-17T04:50:04.657Z,977.29
2018-12-17T04:51:04.840Z,977.24
2018-12-17T04:52:04.743Z,977.04
2018-12-17T04:53:04.985Z,977.40
2018-12-17T04:54:04.942Z,977.21
2018-12-17T04:55:04.973Z,977.32
2018-12-17T04:56:05.264Z,977.46
2018-12-17T04:57:05.358Z,977.38
2018-12-17T04:58:05.063Z,977.32
2018-12-17T04:59:05.292Z,977.30
2018-12-17T05:00:04.588Z,977.32
2018-12-17T05:01:05.046Z,977.30
2018-12-17T05:02:05.908Z,977.46
2018-12-17T05:03:04.687Z,977.58
2018-12-17T05:04:04.871Z,977.47
2018-12-17T05:05:04.777Z,977.55
2018-12-17T05:06:04.813Z,977.52
2018-12-17T05:07:05.003Z,977.36
2018-12-17T05:08:05.167Z,977.41
2018-12-17T05:09:05.091Z,977.55
2018-12-17T05:10:05.395Z,977.53
2018-12-17T05:11:05.405Z,977.56
2018-12-17T05:12:04.837Z,977.45
2018-12-17T05:13:04.633Z,977.39
2018-12-17T05:14:05.131Z,977.42
2018-12-17T05:15:05.477Z,977.53
2018-12-17T05:16:04.920Z,977.50
2018-12-17T05:17:05.145Z,977.66
2018-12-17T05:18:05.378Z,977.48
2018-12-17T05:19:04.898Z,977.51
2018-12-17T05:20:04.984Z,977.45
2018-12-17T05:21:05.561Z,977.59
2018-12-17T05:22:04.585Z,977.69
2018-12-17T05:23:04.624Z,977.56
2018-12-17T05:24:04.976Z,977.59
2018-12-17T05:25:05.682Z,977.57
2018-12-17T05:26:04.860Z,977.54
2018-12-17T05:27:05.415Z,977.62
2018-12-17T05:28:04.572Z,977.72
2018-12-17T05:29:04.950Z,977.57
2018-12-17T05:30:04.626Z,977.67
2018-12-17T05:31:04.879Z,977.78
2018-12-17T05:32:05.169Z,977.73
2018-12-17T05:33:05.384Z,977.76
2018-12-17T05:34:04.619Z,977.84
2018-12-17T05:35:04.584Z,977.57
2018-12-17T05:36:04.919Z,977.84
2018-12-17T05:37:05.095Z,977.62
2018-12-17T05:38:05.100Z,977.81
2018-12-17T05:39:04.523Z,977.84
2018-12-17T05:40:04.788Z,977.73
2018-12-17T05:41:05.302Z,977.78
2018-12-17T05:42:04.927Z,977.73
2018-12-17T05:43:05.254Z,977.84
2018-12-17T05:44:05.488Z,977.87
2018-12-17T05:45:04.619Z,977.86
2018-12-17T05:46:04.869Z,977.86
2018-12-17T05:47:05.287Z,977.81
2018-12-17T05:48:04.547Z,977.84
2018-12-17T05:49:04.642Z,977.95
2018-12-17T05:50:05.205Z,977.86
2018-12-17T05:51:05.573Z,977.86
2018-12-17T05:52:05.068Z,977.89
2018-12-17T05:53:04.784Z,977.86
2018-12-17T05:54:04.722Z,977.86
2018-12-17T05:55:04.800Z,977.84
2018-12-17T05:56:05.035Z,977.70
2018-12-17T05:57:05.411Z,977.89
2018-12-17T05:58:05.305Z,977.95
2018-12-17T05:59:05.383Z,977.98
2018-12-17T06:00:04.689Z,977.95
2018-12-17T06:01:05.192Z,977.92
2018-12-17T06:02:05.455Z,977.98
2018-12-17T06:03:04.681Z,978.03
2018-12-17T06:04:04.968Z,978.04
2018-12-17T06:05:04.503Z,978.04
2018-12-17T06:06:05.138Z,978.01
2018-12-17T06:07:05.283Z,978.09
2018-12-17T06:08:04.613Z,978.04
2018-12-17T06:09:04.932Z,978.04
2018-12-17T06:10:05.222Z,978.15
2018-12-17T06:11:04.878Z,978.04
2018-12-17T06:12:04.996Z,978.07
2018-12-17T06:13:05.234Z,978.18
2018-12-17T06:14:05.357Z,978.24
2018-12-17T06:15:04.565Z,978.35
2018-12-17T06:16:04.813Z,978.15
2018-12-17T06:17:05.444Z,978.26
2018-12-17T06:18:04.845Z,978.26
2018-12-17T06:19:04.869Z,978.29
2018-12-17T06:20:04.561Z,978.29
2018-12-17T06:21:05.065Z,978.48
2018-12-17T06:22:04.922Z,978.43
2018-12-17T06:23:04.759Z,978.43
2018-12-17T06:24:04.803Z,978.38
2018-12-17T06:25:05.455Z,978.37
2018-12-17T06:26:04.563Z,978.21
2018-12-17T06:27:04.731Z,978.32
2018-12-17T06:28:05.339Z,978.40
2018-12-17T06:29:04.745Z,978.21
2018-12-17T06:30:04.795Z,978.24
2018-12-17T06:31:05.314Z,978.35
2018-12-17T06:32:04.447Z,978.29
2018-12-17T06:33:06.288Z,978.26
2018-12-17T06:34:04.780Z,978.37
2018-12-17T06:35:04.583Z,978.35
2018-12-17T06:36:05.055Z,978.43
2018-12-17T06:37:05.243Z,978.43
2018-12-17T06:38:04.745Z,978.47
2018-12-17T06:39:04.945Z,978.47
2018-12-17T06:40:10.732Z,978.47
2018-12-17T06:41:05.443Z,978.53
2018-12-17T06:42:04.506Z,978.32
2018-12-17T06:43:05.027Z,978.56
2018-12-17T06:44:05.400Z,978.43
2018-12-17T06:45:04.551Z,978.47
2018-12-17T06:46:04.625Z,978.50
2018-12-17T06:47:04.837Z,978.47
2018-12-17T06:48:04.916Z,978.61
2018-12-17T06:49:05.186Z,978.58
2018-12-17T06:50:04.724Z,978.64
2018-12-17T06:51:04.846Z,978.69
2018-12-17T06:52:04.847Z,978.67
2018-12-17T06:53:04.561Z,978.53
2018-12-17T06:54:05.263Z,978.53
2018-12-17T06:55:06.243Z,978.53
2018-12-17T06:56:04.848Z,978.55
2018-12-17T06:57:04.985Z,978.61
2018-12-17T06:58:05.410Z,978.55
2018-12-17T06:59:04.664Z,978.66
2018-12-17T07:00:05.139Z,978.52
2018-12-17T07:01:04.579Z,978.61
2018-12-17T07:02:05.314Z,978.66
2018-12-17T07:03:04.530Z,978.58
2018-12-17T07:04:04.619Z,978.69
2018-12-17T07:05:04.845Z,978.66
2018-12-17T07:06:04.852Z,978.69
2018-12-17T07:07:05.210Z,978.83
2018-12-17T07:08:04.736Z,978.63
2018-12-17T07:09:05.214Z,978.66
2018-12-17T07:10:04.737Z,978.69
2018-12-17T07:11:04.705Z,978.71
2018-12-17T07:12:04.949Z,978.71
2018-12-17T07:13:05.162Z,978.74
2018-12-17T07:14:04.687Z,978.77
2018-12-17T07:15:04.854Z,978.77
2018-12-17T07:16:04.908Z,978.74
2018-12-17T07:17:05.072Z,978.77
2018-12-17T07:18:04.687Z,978.68
2018-12-17T07:19:04.992Z,978.80
2018-12-17T07:20:05.405Z,978.80
2018-12-17T07:21:05.610Z,978.80
2018-12-17T07:22:05.045Z,978.88
2018-12-17T07:23:04.623Z,978.82
2018-12-17T07:24:05.288Z,978.93
2018-12-17T07:25:04.514Z,978.85
2018-12-17T07:26:04.638Z,978.85
2018-12-17T07:27:04.686Z,978.90
2018-12-17T07:28:04.936Z,979.04
2018-12-17T07:29:05.088Z,979.01
2018-12-17T07:30:04.978Z,979.07
2018-12-17T07:31:10.140Z,979.13
2018-12-17T07:32:04.694Z,979.21
2018-12-17T07:33:04.663Z,979.15
2018-12-17T07:34:04.870Z,979.15
2018-12-17T07:35:04.714Z,978.98
2018-12-17T07:36:04.911Z,979.12
2018-12-17T07:37:05.091Z,979.15
2018-12-17T07:38:05.294Z,979.21
2018-12-17T07:39:05.405Z,979.18
2018-12-17T07:40:04.981Z,979.09
2018-12-17T07:41:05.002Z,979.06
2018-12-17T07:42:05.419Z,979.26
2018-12-17T07:43:05.427Z,979.04
2018-12-17T07:44:04.650Z,979.12
2018-12-17T07:45:05.628Z,979.20
2018-12-17T07:46:04.768Z,979.09
2018-12-17T07:47:04.830Z,979.20
2018-12-17T07:48:04.992Z,979.14
2018-12-17T07:49:05.020Z,979.31
2018-12-17T07:50:04.570Z,979.23
2018-12-17T07:51:05.224Z,979.28
2018-12-17T07:52:05.327Z,979.14
2018-12-17T07:53:05.433Z,979.34
2018-12-17T07:54:04.495Z,979.28
2018-12-17T07:55:04.688Z,979.42
2018-12-17T07:56:04.734Z,979.28
2018-12-17T07:57:05.191Z,979.47
2018-12-17T07:58:05.123Z,979.28
2018-12-17T07:59:05.135Z,979.44
2018-12-17T08:00:05.083Z,979.50
2018-12-17T08:01:04.757Z,979.47
2018-12-17T08:02:04.797Z,979.53
2018-12-17T08:03:05.129Z,979.66
2018-12-17T08:04:05.324Z,979.44
2018-12-17T08:05:09.614Z,979.58
2018-12-17T08:06:05.174Z,979.50
2018-12-17T08:07:05.762Z,979.61
2018-12-17T08:08:05.208Z,979.66
2018-12-17T08:09:05.353Z,979.66
2018-12-17T08:10:05.281Z,979.66
2018-12-17T08:11:05.292Z,979.66
2018-12-17T08:12:05.614Z,979.72
2018-12-17T08:13:04.876Z,979.83
2018-12-17T08:14:05.011Z,979.77
2018-12-17T08:15:05.236Z,979.82
2018-12-17T08:16:04.662Z,979.85
2018-12-17T08:17:05.210Z,979.92
2018-12-17T08:18:04.612Z,979.71
2018-12-17T08:19:04.634Z,979.92
2018-12-17T08:20:05.186Z,979.95
2018-12-17T08:21:05.281Z,979.79
2018-12-17T08:22:04.621Z,979.85
2018-12-17T08:23:05.214Z,979.98
2018-12-17T08:24:05.117Z,979.85
2018-12-17T08:25:05.168Z,979.76
2018-12-17T08:26:05.195Z,979.85
2018-12-17T08:27:04.712Z,979.89
2018-12-17T08:28:04.753Z,979.86
2018-12-17T08:29:05.176Z,979.86
2018-12-17T08:30:05.424Z,980.00
2018-12-17T08:31:05.512Z,979.97
2018-12-17T08:32:04.816Z,979.84
2018-12-17T08:33:04.589Z,979.91
2018-12-17T08:34:04.737Z,980.03
2018-12-17T08:35:05.093Z,979.91
2018-12-17T08:36:04.871Z,979.97
2018-12-17T08:37:04.485Z,980.00
2018-12-17T08:38:05.070Z,980.14
2018-12-17T08:39:04.657Z,980.00
2018-12-17T08:40:04.749Z,980.05
2018-12-17T08:41:04.885Z,980.11
2018-12-17T08:42:05.498Z,980.16
2018-12-17T08:43:04.806Z,980.11
2018-12-17T08:44:04.790Z,980.11
2018-12-17T08:45:04.910Z,980.00
2018-12-17T08:46:04.650Z,980.21
2018-12-17T08:47:05.127Z,980.08
2018-12-17T08:48:04.665Z,980.29
2018-12-17T08:49:04.919Z,980.13
2018-12-17T08:50:05.226Z,980.37
2018-12-17T08:51:05.530Z,980.26
2018-12-17T08:52:05.458Z,980.29
2018-12-17T08:53:04.879Z,980.21
2018-12-17T08:54:04.481Z,980.43
2018-12-17T08:55:04.966Z,980.35
2018-12-17T08:56:05.354Z,980.32
2018-12-17T08:57:05.338Z,980.29
2018-12-17T08:58:05.490Z,980.43
2018-12-17T08:59:05.334Z,980.29
2018-12-17T09:00:11.439Z,980.37
2018-12-17T09:01:05.104Z,980.29
2018-12-17T09:02:05.425Z,980.40
2018-12-17T09:03:05.289Z,980.37
2018-12-17T09:04:04.483Z,980.59
2018-12-17T09:05:04.564Z,980.34
2018-12-17T09:06:05.280Z,980.53
2018-12-17T09:07:05.125Z,980.53
2018-12-17T09:08:05.211Z,980.48
2018-12-17T09:09:04.883Z,980.53
2018-12-17T09:10:05.234Z,980.45
2018-12-17T09:11:04.794Z,980.47
2018-12-17T09:12:05.061Z,980.56
2018-12-17T09:13:05.114Z,980.47
2018-12-17T09:14:05.183Z,980.61
2018-12-17T09:15:05.534Z,980.61
2018-12-17T09:16:04.490Z,980.42
2018-12-17T09:17:04.631Z,980.55
2018-12-17T09:18:04.783Z,980.44
2018-12-17T09:19:04.721Z,980.52
2018-12-17T09:20:04.914Z,980.52
2018-12-17T09:21:05.207Z,980.55
2018-12-17T09:22:05.294Z,980.52
2018-12-17T09:23:05.255Z,980.47
2018-12-17T09:24:05.548Z,980.63
2018-12-17T09:25:04.521Z,980.71
2018-12-17T09:26:05.103Z,980.71
2018-12-17T09:27:05.008Z,980.71
2018-12-17T09:28:04.519Z,980.49
2018-12-17T09:29:04.702Z,980.65
2018-12-17T09:30:05.164Z,980.76
2018-12-17T09:31:05.201Z,980.90
2018-12-17T09:32:04.972Z,980.73
2018-12-17T09:33:04.920Z,980.81
2018-12-17T09:34:05.391Z,980.76
2018-12-17T09:35:05.361Z,980.62
2018-12-17T09:36:04.597Z,980.78
2018-12-17T09:37:04.580Z,980.73
2018-12-17T09:38:04.854Z,980.67
2018-12-17T09:39:05.189Z,980.81
2018-12-17T09:40:04.780Z,980.75
2018-12-17T09:41:05.081Z,980.83
2018-12-17T09:42:05.321Z,980.80
2018-12-17T09:43:04.786Z,980.69
2018-12-17T09:44:04.856Z,980.80
2018-12-17T09:45:05.150Z,980.77
2018-12-17T09:46:05.299Z,980.61
2018-12-17T09:47:04.815Z,980.55
2018-12-17T09:48:04.835Z,980.69
2018-12-17T09:49:04.974Z,980.69
2018-12-17T09:50:05.103Z,980.77
2018-12-17T09:51:04.755Z,980.66
2018-12-17T09:52:04.976Z,980.54
2018-12-17T09:53:05.062Z,980.57
2018-12-17T09:54:05.298Z,980.88
2018-12-17T09:55:05.223Z,980.76
2018-12-17T09:56:04.638Z,980.73
2018-12-17T09:57:04.833Z,980.71
2018-12-17T09:58:05.082Z,980.59
2018-12-17T09:59:04.539Z,980.73
2018-12-17T10:00:04.669Z,980.73
2018-12-17T10:01:05.261Z,980.65
2018-12-17T10:02:05.278Z,980.67
2018-12-17T10:03:04.755Z,980.59
2018-12-17T10:04:05.178Z,980.64
2018-12-17T10:05:04.672Z,980.61
2018-12-17T10:06:05.336Z,980.52
2018-12-17T10:07:05.410Z,980.58
2018-12-17T10:08:04.811Z,980.69
2018-12-17T10:09:04.938Z,980.60
2018-12-17T10:10:05.327Z,980.57
2018-12-17T10:11:05.374Z,980.68
2018-12-17T10:12:04.988Z,980.60
2018-12-17T10:13:04.501Z,980.57
2018-12-17T10:14:05.070Z,980.48
2018-12-17T10:15:05.324Z,980.68
2018-12-17T10:16:04.918Z,980.65
2018-12-17T10:17:05.337Z,980.67
2018-12-17T10:18:05.119Z,980.67
2018-12-17T10:19:04.636Z,980.70
2018-12-17T10:20:05.105Z,980.61
2018-12-17T10:21:05.370Z,980.61
2018-12-17T10:22:05.519Z,980.75
2018-12-17T10:23:05.090Z,980.64
2018-12-17T10:24:05.408Z,980.64
2018-12-17T10:25:05.361Z,980.81
2018-12-17T10:26:04.912Z,980.50
2018-12-17T10:27:05.439Z,980.83
2018-12-17T10:28:04.725Z,980.75
2018-12-17T10:29:05.451Z,980.69
2018-12-17T10:30:05.420Z,980.64
2018-12-17T10:31:04.795Z,980.72
2018-12-17T10:32:05.195Z,980.77
2018-12-17T10:33:05.468Z,980.80
2018-12-17T10:34:05.426Z,980.69
2018-12-17T10:35:05.239Z,980.75
2018-12-17T10:36:05.279Z,980.66
2018-12-17T10:37:05.288Z,980.66
2018-12-17T10:38:04.796Z,980.72
2018-12-17T10:39:05.071Z,980.80
2018-12-17T10:40:04.637Z,980.66
2018-12-17T10:41:04.852Z,980.74
2018-12-17T10:42:05.267Z,980.74
2018-12-17T10:43:04.677Z,980.69
2018-12-17T10:44:05.034Z,980.74
2018-12-17T10:45:05.342Z,980.83
2018-12-17T10:46:05.361Z,980.69
2018-12-17T10:47:05.466Z,980.82
2018-12-17T10:48:04.873Z,980.69
2018-12-17T10:49:05.050Z,980.63
2018-12-17T10:50:05.665Z,980.66
2018-12-17T10:51:04.567Z,980.68
2018-12-17T10:52:05.057Z,980.85
2018-12-17T10:53:04.589Z,980.65
2018-12-17T10:54:04.581Z,980.60
2018-12-17T10:55:05.267Z,980.62
2018-12-17T10:56:10.359Z,980.59
2018-12-17T10:57:04.862Z,980.73
2018-12-17T10:58:05.285Z,980.68
2018-12-17T10:59:05.291Z,980.51
2018-12-17T11:00:05.474Z,980.56
2018-12-17T11:01:04.890Z,980.73
2018-12-17T11:02:04.867Z,980.73
2018-12-17T11:03:05.302Z,980.64
2018-12-17T11:04:05.394Z,980.72
2018-12-17T11:05:05.373Z,980.50
2018-12-17T11:06:05.471Z,980.64
2018-12-17T11:07:05.458Z,980.64
2018-12-17T11:08:04.611Z,980.75
2018-12-17T11:09:05.179Z,980.75
2018-12-17T11:10:05.318Z,980.64
2018-12-17T11:11:05.436Z,980.58
2018-12-17T11:12:04.962Z,980.64
2018-12-17T11:13:05.329Z,980.72
2018-12-17T11:14:05.582Z,980.72
2018-12-17T11:15:05.417Z,980.72
2018-12-17T11:16:05.156Z,980.61
2018-12-17T11:17:05.337Z,980.61
2018-12-17T11:18:05.343Z,980.52
2018-12-17T11:19:05.751Z,980.52
2018-12-17T11:20:04.494Z,980.49
2018-12-17T11:21:05.161Z,980.58
2018-12-17T11:22:04.668Z,980.57
2018-12-17T11:23:04.752Z,980.74
2018-12-17T11:24:04.957Z,980.63
2018-12-17T11:25:04.873Z,980.63
2018-12-17T11:26:05.273Z,980.60
2018-12-17T11:27:04.617Z,980.71
2018-12-17T11:28:04.945Z,980.71
2018-12-17T11:29:04.529Z,980.63
2018-12-17T11:30:09.714Z,980.60
2018-12-17T11:31:05.073Z,980.71
2018-12-17T11:32:11.902Z,980.76
2018-12-17T11:33:04.605Z,980.68
2018-12-17T11:34:04.871Z,980.82
2018-12-17T11:35:05.131Z,980.73
2018-12-17T11:36:05.389Z,980.76
2018-12-17T11:37:05.723Z,980.85
2018-12-17T11:38:04.476Z,980.79
2018-12-17T11:39:05.142Z,980.96
2018-12-17T11:40:05.263Z,980.71
2018-12-17T11:41:04.720Z,980.76
2018-12-17T11:42:04.710Z,980.73
2018-12-17T11:43:04.783Z,980.76
2018-12-17T11:44:04.967Z,980.76
2018-12-17T11:45:04.848Z,980.79
2018-12-17T11:46:05.129Z,980.71
2018-12-17T11:47:05.155Z,980.73
2018-12-17T11:48:05.189Z,980.82
2018-12-17T11:49:04.465Z,980.71
2018-12-17T11:50:04.601Z,980.65
2018-12-17T11:51:05.210Z,980.73
2018-12-17T11:52:05.101Z,980.59
2018-12-17T11:53:05.135Z,980.70
2018-12-17T11:54:05.290Z,980.65
2018-12-17T11:55:05.408Z,980.65
2018-12-17T11:56:05.390Z,980.59
2018-12-17T11:57:04.979Z,980.54
2018-12-17T11:58:05.141Z,980.59
2018-12-17T11:59:04.494Z,980.62
2018-12-17T12:00:05.059Z,980.54
2018-12-17T12:01:05.027Z,980.65
2018-12-17T12:02:05.152Z,980.59
2018-12-17T12:03:04.865Z,980.57
2018-12-17T12:04:09.784Z,980.51
2018-12-17T12:05:05.235Z,980.40
2018-12-17T12:06:05.437Z,980.45
2018-12-17T12:07:05.121Z,980.62
2018-12-17T12:08:05.205Z,980.40
2018-12-17T12:09:04.553Z,980.46
2018-12-17T12:10:04.796Z,980.40
2018-12-17T12:11:04.669Z,980.48
2018-12-17T12:12:05.416Z,980.54
2018-12-17T12:13:04.564Z,980.51
2018-12-17T12:14:05.346Z,980.40
2018-12-17T12:15:05.590Z,980.60
2018-12-17T12:16:04.850Z,980.46
2018-12-17T12:17:05.401Z,980.43
2018-12-17T12:18:05.525Z,980.54
2018-12-17T12:19:04.867Z,980.40
2018-12-17T12:20:05.370Z,980.43
2018-12-17T12:21:04.832Z,980.45
2018-12-17T12:22:05.065Z,980.57
2018-12-17T12:23:04.881Z,980.54
2018-12-17T12:24:05.040Z,980.57
2018-12-17T12:25:05.120Z,980.57
2018-12-17T12:26:05.293Z,980.54
2018-12-17T12:27:05.300Z,980.65
2018-12-17T12:28:04.582Z,980.62